CMA CGM Carmen — A8IE8 — position and weather

sailwx.info

Track history (hours):
 
Tides and Currents Weather Stations Pressure Air Temp Water Temp Dewpoint Dewpoint Depression Visibility Wind Speed Wind Dir Waves Ship Positions

CMA CGM Carmen

Last reported at 2018-Jan-20 11:00 UTC. Time now 2018-Jan-20 16:54 UTC.
Position N 43°24' W 051°24'.

Length 334.1 m; beam 43 m; draft 14.5 m.

Type: Ship (hazmat cat A). MMSI: 636090965.

Wind from 300 at 17 knots

Barometer 1011.9 mb
Air temperature 3.6 ° C
Visibility: greater than 10.8 NM
Dewpoint -2.6 ° C
Water temperature 5.6 ° C

Date/timePositionNaut miles runAvg speedWind from/ knotsBaromVisibWave heightAir tempDewpointWater temp
2018-Jan-20 11:00N 43°24' W 051°24'11122.1 300 / 171011.910.8 3.6-2.6 5.6
2018-Jan-20 06:00N 42°30' W 053°36'12020.0 330 / 221008.4 5.4 4.7-2.215.0
2018-Jan-20 00:00N 41°36' W 056°00'12120.2 320 / 241005.227.0 8.6 1.917.2
2018-Jan-19 18:00N 40°42' W 058°24'11519.2 310 / 201002.0 5.4 9.4 4.612.5
2018-Jan-19 12:00N 40°24' W 060°54'12921.6 360 / 38998.227.0 14.0 6.419.0
2018-Jan-19 06:00N 40°06' W 063°42'12420.7 350 / 35997.8 5.4 9.3 6.916.3
2018-Jan-19 00:00N 40°06' W 066°24'13422.3 010 / 351001.127.0 9.8 6.519.0
2018-Jan-18 18:00N 40°24' W 069°18'20720.3 010 / 221008.2 5.4 5.3-0.1 6.9
2018-Jan-18 07:48N 40°26' W 073°49'3 9.3
2018-Jan-18 07:30N 40°28' W 073°52'5 9.9
2018-Jan-18 07:00N 40°30' W 073°58'816.3
2018-Jan-18 06:30N 40°37' W 074°03'4 7.3
2018-Jan-18 06:01N 40°39' W 074°08'2 3.7
2018-Jan-18 05:30N 40°40' W 074°08'1 2.1
2018-Jan-18 04:58N 40°41' W 074°09'0 0.0
2018-Jan-18 04:28N 40°41' W 074°09'0 0.0
2018-Jan-18 03:55N 40°41' W 074°09'0 0.0
2018-Jan-18 03:28N 40°41' W 074°09'0 0.0
2018-Jan-18 02:58N 40°41' W 074°09'0 0.0
2018-Jan-18 02:28N 40°41' W 074°09'0 0.0
2018-Jan-18 01:58N 40°41' W 074°09'0 0.0
2018-Jan-18 01:28N 40°41' W 074°09'0 0.0
2018-Jan-18 00:58N 40°41' W 074°09'0 0.0
2018-Jan-17 23:58N 40°41' W 074°09'0 0.1
2018-Jan-17 23:55N 40°41' W 074°09'  
2018-Jan-12 13:06N 31°60' W 080°40'0 0.0
2018-Jan-12 12:48N 31°60' W 080°40'0 0.0
2018-Jan-12 06:06N 31°60' W 080°40'0 0.1
2018-Jan-12 06:00N 31°60' W 080°40'0 0.0
2018-Jan-12 05:30N 31°60' W 080°40'0 0.0
2018-Jan-12 05:00N 31°60' W 080°40'0 0.0
2018-Jan-12 04:00N 31°60' W 080°40'0 0.0
2018-Jan-12 03:24N 31°60' W 080°40'0 0.0
2018-Jan-12 02:48N 31°60' W 080°40'0 0.0
2018-Jan-12 02:24N 31°60' W 080°40'0 0.0
2018-Jan-12 01:54N 31°60' W 080°40'0 0.0
2018-Jan-12 01:30N 31°60' W 080°40'0 0.0
2018-Jan-12 01:00N 31°60' W 080°40'0 0.0
2018-Jan-12 00:24N 31°60' W 080°40'0 0.0
2018-Jan-12 00:00N 31°60' W 080°40'0 0.0
2018-Jan-11 23:24N 31°60' W 080°40'0 0.1
2018-Jan-11 22:48N 31°60' W 080°40'0 0.0
2018-Jan-11 22:24N 31°60' W 080°40'0 0.0
2018-Jan-11 22:00N 31°60' W 080°40'0 0.0
2018-Jan-11 21:24N 31°60' W 080°40'0 0.1
2018-Jan-11 21:00N 31°60' W 080°40'0 0.0
2018-Jan-11 20:24N 31°60' W 080°40'0 0.1
2018-Jan-11 20:00N 31°60' W 080°40'0 0.0
2018-Jan-11 19:24N 31°60' W 080°40'0 0.0
2018-Jan-11 19:00N 31°60' W 080°40'0 0.0
2018-Jan-11 18:24N 31°60' W 080°40'0 0.0
2018-Jan-11 16:24N 31°60' W 080°40'0 0.0
2018-Jan-11 16:00N 31°60' W 080°40'0 0.3
2018-Jan-11 15:30N 31°60' W 080°40'1 2.7
2018-Jan-11 15:00N 31°60' W 080°38'5 9.1
2018-Jan-11 14:30N 31°59' W 080°33'5 9.4
2018-Jan-11 14:00N 31°58' W 080°27'5 9.9
2018-Jan-11 13:30N 31°58' W 080°21'  
Track history (hours):
 
Tides and Currents Weather Stations Pressure Air Temp Water Temp Dewpoint Dewpoint Depression Visibility Wind Speed Wind Dir Waves Ship Positions

CMA CGM Carmen

Last reported at 2018-Jan-20 11:00 UTC. Time now 2018-Jan-20 16:54 UTC.
Position N 43°24' W 051°24'.

Length 334.1 m; beam 43 m; draft 14.5 m.

Type: Ship (hazmat cat A). MMSI: 636090965.

Wind from 300 at 17 knots

Barometer 1011.9 mb
Air temperature 3.6 ° C
Visibility: greater than 10.8 NM
Dewpoint -2.6 ° C
Water temperature 5.6 ° C

Date/timePositionNaut miles runAvg speedWind from/ knotsBaromVisibWave heightAir tempDewpointWater temp
2018-Jan-20 11:00N 43°24' W 051°24'11122.1 300 / 171011.910.8 3.6-2.6 5.6
2018-Jan-20 06:00N 42°30' W 053°36'12020.0 330 / 221008.4 5.4 4.7-2.215.0
2018-Jan-20 00:00N 41°36' W 056°00'12120.2 320 / 241005.227.0 8.6 1.917.2
2018-Jan-19 18:00N 40°42' W 058°24'11519.2 310 / 201002.0 5.4 9.4 4.612.5
2018-Jan-19 12:00N 40°24' W 060°54'12921.6 360 / 38998.227.0 14.0 6.419.0
2018-Jan-19 06:00N 40°06' W 063°42'12420.7 350 / 35997.8 5.4 9.3 6.916.3
2018-Jan-19 00:00N 40°06' W 066°24'13422.3 010 / 351001.127.0 9.8 6.519.0
2018-Jan-18 18:00N 40°24' W 069°18'20720.3 010 / 221008.2 5.4 5.3-0.1 6.9
2018-Jan-18 07:48N 40°26' W 073°49'3 9.3
2018-Jan-18 07:30N 40°28' W 073°52'5 9.9
2018-Jan-18 07:00N 40°30' W 073°58'816.3
2018-Jan-18 06:30N 40°37' W 074°03'4 7.3
2018-Jan-18 06:01N 40°39' W 074°08'2 3.7
2018-Jan-18 05:30N 40°40' W 074°08'1 2.1
2018-Jan-18 04:58N 40°41' W 074°09'0 0.0
2018-Jan-18 04:28N 40°41' W 074°09'0 0.0
2018-Jan-18 03:55N 40°41' W 074°09'0 0.0
2018-Jan-18 03:28N 40°41' W 074°09'0 0.0
2018-Jan-18 02:58N 40°41' W 074°09'0 0.0
2018-Jan-18 02:28N 40°41' W 074°09'0 0.0
2018-Jan-18 01:58N 40°41' W 074°09'0 0.0
2018-Jan-18 01:28N 40°41' W 074°09'0 0.0
2018-Jan-18 00:58N 40°41' W 074°09'0 0.0
2018-Jan-17 23:58N 40°41' W 074°09'0 0.1
2018-Jan-17 23:55N 40°41' W 074°09'  
2018-Jan-12 13:06N 31°60' W 080°40'0 0.0
2018-Jan-12 12:48N 31°60' W 080°40'0 0.0
2018-Jan-12 06:06N 31°60' W 080°40'0 0.1
2018-Jan-12 06:00N 31°60' W 080°40'0 0.0
2018-Jan-12 05:30N 31°60' W 080°40'0 0.0
2018-Jan-12 05:00N 31°60' W 080°40'0 0.0
2018-Jan-12 04:00N 31°60' W 080°40'0 0.0
2018-Jan-12 03:24N 31°60' W 080°40'0 0.0
2018-Jan-12 02:48N 31°60' W 080°40'0 0.0
2018-Jan-12 02:24N 31°60' W 080°40'0 0.0
2018-Jan-12 01:54N 31°60' W 080°40'0 0.0
2018-Jan-12 01:30N 31°60' W 080°40'0 0.0
2018-Jan-12 01:00N 31°60' W 080°40'0 0.0
2018-Jan-12 00:24N 31°60' W 080°40'0 0.0
2018-Jan-12 00:00N 31°60' W 080°40'0 0.0
2018-Jan-11 23:24N 31°60' W 080°40'0 0.1
2018-Jan-11 22:48N 31°60' W 080°40'0 0.0
2018-Jan-11 22:24N 31°60' W 080°40'0 0.0
2018-Jan-11 22:00N 31°60' W 080°40'0 0.0
2018-Jan-11 21:24N 31°60' W 080°40'0 0.1
2018-Jan-11 21:00N 31°60' W 080°40'0 0.0
2018-Jan-11 20:24N 31°60' W 080°40'0 0.1
2018-Jan-11 20:00N 31°60' W 080°40'0 0.0
2018-Jan-11 19:24N 31°60' W 080°40'0 0.0
2018-Jan-11 19:00N 31°60' W 080°40'0 0.0
2018-Jan-11 18:24N 31°60' W 080°40'0 0.0
2018-Jan-11 16:24N 31°60' W 080°40'0 0.0
2018-Jan-11 16:00N 31°60' W 080°40'0 0.3
2018-Jan-11 15:30N 31°60' W 080°40'1 2.7
2018-Jan-11 15:00N 31°60' W 080°38'5 9.1
2018-Jan-11 14:30N 31°59' W 080°33'5 9.4
2018-Jan-11 14:00N 31°58' W 080°27'5 9.9
2018-Jan-11 13:30N 31°58' W 080°21'  

Dump ship's entire track history